Time;durP1;ratioP1;P1;durP2;ratioP2;P2;SDS_P1;SDS_P2;PMS_P1;PMS_P2;Temp;Humidity;BMP_temperature;BMP_pressure;BME280_temperature;BME280_humidity;BME280_pressure;Samples;Min_cycle;Max_cycle;Signal;HPM_P1;HPM_P2
2023/07/01 02:01:58;;;;;;;9.10;8.15;;;;;;;;;;4577887;27;19997;-75
2023/07/01 02:04:24;;;;;;;10.23;7.90;;;;;;;;;;4338340;33;20511;-75
2023/07/01 02:06:50;;;;;;;9.48;7.45;;;;;;;;;;4341636;33;20115;-75
2023/07/01 02:09:17;;;;;;;15.65;8.65;;;;;;;;;;4341398;33;20052;-74
2023/07/01 02:11:43;;;;;;;10.38;7.97;;;;;;;;;;4340844;33;20467;-76
2023/07/01 02:14:09;;;;;;;12.98;7.55;;;;;;;;;;4340937;33;20458;-76
2023/07/01 02:16:36;;;;;;;8.45;7.37;;;;;;;;;;4341489;33;20048;-76
2023/07/01 02:19:04;;;;;;;11.05;7.97;;;;;;;;;;4341542;33;20062;-75
2023/07/01 02:21:31;;;;;;;10.82;8.38;;;;;;;;;;4336741;33;20040;-75
2023/07/01 02:23:57;;;;;;;10.25;8.50;;;;;;;;;;4316167;33;20254;-76
2023/07/01 02:26:24;;;;;;;11.18;8.52;;;;;;;;;;4309913;33;20068;-76
2023/07/01 02:28:50;;;;;;;11.43;8.93;;;;;;;;;;4311857;33;20049;-76
2023/07/01 02:31:18;;;;;;;11.48;7.93;;;;;;;;;;4311110;33;20051;-76
2023/07/01 02:33:44;;;;;;;12.02;8.45;;;;;;;;;;4316711;33;20044;-76
2023/07/01 02:36:10;;;;;;;12.77;9.00;;;;;;;;;;4315450;33;20058;-77
2023/07/01 02:38:37;;;;;;;12.55;8.68;;;;;;;;;;4294913;33;20152;-76
2023/07/01 02:41:04;;;;;;;10.90;8.70;;;;;;;;;;4296053;33;20489;-76
2023/07/01 02:43:30;;;;;;;12.43;9.38;;;;;;;;;;4295532;33;20041;-76
2023/07/01 02:45:56;;;;;;;13.98;9.05;;;;;;;;;;4294749;33;20045;-76
2023/07/01 02:48:22;;;;;;;16.65;11.48;;;;;;;;;;4291258;33;20057;-76
2023/07/01 02:50:48;;;;;;;20.37;10.13;;;;;;;;;;4294755;33;20061;-76
2023/07/01 02:53:15;;;;;;;13.00;9.98;;;;;;;;;;4293452;33;20058;-76
2023/07/01 02:55:41;;;;;;;14.32;10.18;;;;;;;;;;4306027;33;20083;-76
2023/07/01 02:58:08;;;;;;;18.85;11.15;;;;;;;;;;4308889;33;20049;-76
2023/07/01 03:00:33;;;;;;;15.90;12.07;;;;;;;;;;4318398;33;20033;-77
2023/07/01 03:03:06;;;;;;;18.23;11.82;;;;;;;;;;4322552;33;20851;-76
2023/07/01 03:05:33;;;;;;;16.80;11.50;;;;;;;;;;4322415;33;20033;-76
2023/07/01 03:07:59;;;;;;;16.92;11.93;;;;;;;;;;4322047;33;20060;-76
2023/07/01 03:10:25;;;;;;;14.23;10.90;;;;;;;;;;4291480;33;20127;-77
2023/07/01 03:12:52;;;;;;;25.55;13.62;;;;;;;;;;4293990;33;20058;-76
2023/07/01 03:15:18;;;;;;;18.45;12.48;;;;;;;;;;4279925;33;20045;-76
2023/07/01 03:17:47;;;;;;;17.95;13.95;;;;;;;;;;4279972;33;20057;-76
2023/07/01 03:20:22;;;;;;;16.92;13.23;;;;;;;;;;4251381;33;20196;-77
2023/07/01 03:22:51;;;;;;;20.92;15.75;;;;;;;;;;4251220;33;20875;-77
2023/07/01 03:25:17;;;;;;;27.27;18.42;;;;;;;;;;4248812;33;20078;-76
2023/07/01 03:27:44;;;;;;;18.10;14.90;;;;;;;;;;4237161;33;20073;-76
2023/07/01 03:30:13;;;;;;;27.87;16.98;;;;;;;;;;4235556;33;20047;-76
2023/07/01 03:32:41;;;;;;;29.15;16.58;;;;;;;;;;4234393;33;20504;-77
2023/07/01 03:35:07;;;;;;;26.35;16.20;;;;;;;;;;4264332;33;20046;-76
2023/07/01 03:37:33;;;;;;;25.27;16.87;;;;;;;;;;4267932;33;20042;-76
2023/07/01 03:39:59;;;;;;;27.23;16.17;;;;;;;;;;4279623;33;20093;-77
2023/07/01 03:42:25;;;;;;;31.85;17.65;;;;;;;;;;4303772;33;20061;-76
2023/07/01 03:44:51;;;;;;;29.17;17.20;;;;;;;;;;4306515;33;20075;-76
2023/07/01 03:47:18;;;;;;;31.17;17.87;;;;;;;;;;4295339;33;20336;-76
2023/07/01 03:49:44;;;;;;;28.15;17.25;;;;;;;;;;4293491;33;20183;-76
2023/07/01 03:52:10;;;;;;;31.15;17.62;;;;;;;;;;4332783;33;20051;-76
2023/07/01 03:54:36;;;;;;;28.33;18.98;;;;;;;;;;4338709;33;20086;-77
2023/07/01 03:57:02;;;;;;;29.80;18.45;;;;;;;;;;4340252;33;20877;-76
2023/07/01 03:59:28;;;;;;;22.52;16.85;;;;;;;;;;4340357;33;20040;-76
2023/07/01 04:01:54;;;;;;;24.05;19.60;;;;;;;;;;4340206;33;20051;-77
2023/07/01 04:04:21;;;;;;;37.67;19.55;;;;;;;;;;4340572;33;20078;-76
2023/07/01 04:06:47;;;;;;;28.52;18.60;;;;;;;;;;4337667;33;20113;-76
2023/07/01 04:09:13;;;;;;;34.97;19.95;;;;;;;;;;4339202;33;20063;-76
2023/07/01 04:11:40;;;;;;;27.67;18.87;;;;;;;;;;4340688;33;20052;-76
2023/07/01 04:14:06;;;;;;;29.73;19.27;;;;;;;;;;4339184;33;20464;-76
2023/07/01 04:16:32;;;;;;;29.08;18.42;;;;;;;;;;4330494;33;20516;-75
2023/07/01 04:18:59;;;;;;;32.67;18.90;;;;;;;;;;4337201;33;20417;-76
2023/07/01 04:21:25;;;;;;;27.73;18.80;;;;;;;;;;4340634;33;20073;-75
2023/07/01 04:23:52;;;;;;;34.08;19.42;;;;;;;;;;4340490;33;20040;-76
2023/07/01 04:26:18;;;;;;;34.88;21.92;;;;;;;;;;4329302;33;20527;-76
2023/07/01 04:28:44;;;;;;;30.00;18.30;;;;;;;;;;4325854;33;20055;-75
2023/07/01 04:31:10;;;;;;;29.12;18.70;;;;;;;;;;4323515;33;20041;-76
2023/07/01 04:33:36;;;;;;;28.87;19.48;;;;;;;;;;4325429;33;20074;-76
2023/07/01 04:36:03;;;;;;;27.33;20.15;;;;;;;;;;4325473;33;20842;-75
2023/07/01 04:38:29;;;;;;;36.67;21.85;;;;;;;;;;4325466;33;20382;-76
2023/07/01 04:40:55;;;;;;;32.05;18.80;;;;;;;;;;4322813;33;20074;-76
2023/07/01 04:43:21;;;;;;;26.98;19.40;;;;;;;;;;4325206;33;20070;-77
2023/07/01 04:45:47;;;;;;;28.42;19.95;;;;;;;;;;4338195;33;20513;-76
2023/07/01 04:48:13;;;;;;;34.15;19.73;;;;;;;;;;4335233;33;20406;-77
2023/07/01 04:50:40;;;;;;;29.33;20.10;;;;;;;;;;4339508;32;20055;-77
2023/07/01 04:53:06;;;;;;;31.75;19.90;;;;;;;;;;4354323;32;20249;-75
2023/07/01 04:55:32;;;;;;;29.85;18.75;;;;;;;;;;4354840;32;20089;-76
2023/07/01 04:57:58;;;;;;;30.42;17.98;;;;;;;;;;4355151;32;20044;-77
2023/07/01 05:00:24;;;;;;;28.42;19.12;;;;;;;;;;4351956;32;20113;-75
2023/07/01 05:02:50;;;;;;;30.60;18.08;;;;;;;;;;4351143;32;20097;-78
2023/07/01 05:05:17;;;;;;;24.35;18.08;;;;;;;;;;4354306;32;20099;-77
2023/07/01 05:07:42;;;;;;;25.02;18.20;;;;;;;;;;4354759;32;20031;-74
2023/07/01 05:10:09;;;;;;;26.83;18.95;;;;;;;;;;4353687;32;20052;-76
2023/07/01 05:12:42;;;;;;;26.67;18.35;;;;;;;;;;4324631;33;20045;-76
2023/07/01 05:15:08;;;;;;;24.95;17.85;;;;;;;;;;4324284;33;20052;-76
2023/07/01 05:17:34;;;;;;;30.30;17.75;;;;;;;;;;4325153;33;20075;-75
2023/07/01 05:20:01;;;;;;;29.00;17.02;;;;;;;;;;4295611;33;20106;-76
2023/07/01 05:22:27;;;;;;;23.23;17.40;;;;;;;;;;4311877;33;20085;-76
2023/07/01 05:24:53;;;;;;;26.73;16.77;;;;;;;;;;4307066;33;20465;-77
2023/07/01 05:27:19;;;;;;;27.73;17.62;;;;;;;;;;4310236;33;20053;-76
2023/07/01 05:29:45;;;;;;;29.12;17.15;;;;;;;;;;4310199;33;20048;-76
2023/07/01 05:32:11;;;;;;;26.12;16.27;;;;;;;;;;4309683;33;20053;-76
2023/07/01 05:34:38;;;;;;;24.60;15.57;;;;;;;;;;4310163;33;20049;-77
2023/07/01 05:37:04;;;;;;;24.55;16.90;;;;;;;;;;4306145;33;20103;-78
2023/07/01 05:39:30;;;;;;;25.45;15.65;;;;;;;;;;4310172;33;20049;-76
2023/07/01 05:41:56;;;;;;;20.15;15.77;;;;;;;;;;4310073;33;20443;-78
2023/07/01 05:44:24;;;;;;;21.33;14.93;;;;;;;;;;4309871;33;20056;-77
2023/07/01 05:46:51;;;;;;;20.85;14.07;;;;;;;;;;4310370;33;20444;-78
2023/07/01 05:49:18;;;;;;;22.05;15.23;;;;;;;;;;4314967;33;20056;-76
2023/07/01 05:51:44;;;;;;;20.67;14.68;;;;;;;;;;4339803;32;20400;-76
2023/07/01 05:54:11;;;;;;;23.10;14.35;;;;;;;;;;4347961;32;20044;-76
2023/07/01 05:56:36;;;;;;;30.42;14.48;;;;;;;;;;4344926;32;20072;-75
2023/07/01 05:59:03;;;;;;;25.52;14.73;;;;;;;;;;4351253;32;20051;-76
2023/07/01 06:01:29;;;;;;;16.00;12.07;;;;;;;;;;4352497;32;20102;-75
2023/07/01 06:03:55;;;;;;;19.45;13.38;;;;;;;;;;4358017;32;20062;-75
2023/07/01 06:06:21;;;;;;;23.15;14.00;;;;;;;;;;4362250;32;20047;-75
2023/07/01 06:08:48;;;;;;;19.15;12.40;;;;;;;;;;4362438;32;20061;-77
2023/07/01 06:11:14;;;;;;;16.20;12.10;;;;;;;;;;4361405;32;20090;-76
2023/07/01 06:13:43;;;;;;;21.48;13.10;;;;;;;;;;4354835;32;20098;-76
2023/07/01 06:16:09;;;;;;;17.08;12.45;;;;;;;;;;4353424;32;20094;-76
2023/07/01 06:18:36;;;;;;;18.25;12.23;;;;;;;;;;4351782;32;20051;-75
2023/07/01 06:21:06;;;;;;;21.15;13.23;;;;;;;;;;4348918;32;20039;-75
2023/07/01 06:23:32;;;;;;;25.55;14.30;;;;;;;;;;4351168;32;20417;-75
2023/07/01 06:25:59;;;;;;;24.42;14.02;;;;;;;;;;4351935;32;20052;-75
2023/07/01 06:28:25;;;;;;;21.48;14.30;;;;;;;;;;4357650;32;20047;-75
2023/07/01 06:30:51;;;;;;;32.75;15.95;;;;;;;;;;4366089;32;20090;-77
2023/07/01 06:33:17;;;;;;;25.48;14.27;;;;;;;;;;4364273;32;20512;-76
2023/07/01 06:35:43;;;;;;;23.70;14.38;;;;;;;;;;4368753;32;20109;-75
2023/07/01 06:38:09;;;;;;;24.45;13.27;;;;;;;;;;4361939;32;20081;-76
2023/07/01 06:40:36;;;;;;;22.23;13.27;;;;;;;;;;4363629;32;20474;-76
2023/07/01 06:43:05;;;;;;;20.00;12.80;;;;;;;;;;4337662;32;20049;-75
2023/07/01 06:45:31;;;;;;;19.73;11.27;;;;;;;;;;4336759;33;20383;-76
2023/07/01 06:47:58;;;;;;;15.80;11.20;;;;;;;;;;4338061;32;20086;-76
2023/07/01 06:50:24;;;;;;;18.33;9.73;;;;;;;;;;4309030;33;20074;-76
2023/07/01 06:52:50;;;;;;;19.60;11.02;;;;;;;;;;4304285;33;20068;-77
2023/07/01 06:55:17;;;;;;;17.12;10.90;;;;;;;;;;4306581;33;20037;-77
2023/07/01 06:57:44;;;;;;;16.27;9.50;;;;;;;;;;4306936;33;20074;-76
2023/07/01 07:00:10;;;;;;;15.60;9.75;;;;;;;;;;4306115;33;20440;-75
2023/07/01 07:02:37;;;;;;;20.23;10.30;;;;;;;;;;4305367;33;20733;-78
2023/07/01 07:05:04;;;;;;;19.55;10.45;;;;;;;;;;4304907;33;20099;-76
2023/07/01 07:07:30;;;;;;;13.55;8.63;;;;;;;;;;4308214;33;20057;-76
2023/07/01 07:09:56;;;;;;;14.63;9.27;;;;;;;;;;4308787;33;20053;-76
2023/07/01 07:12:23;;;;;;;15.60;8.82;;;;;;;;;;4309057;33;20053;-76
2023/07/01 07:14:48;;;;;;;17.77;10.00;;;;;;;;;;4320546;33;20502;-76
2023/07/01 07:17:15;;;;;;;14.65;9.85;;;;;;;;;;4321556;33;20035;-77
2023/07/01 07:19:41;;;;;;;15.68;9.52;;;;;;;;;;4323664;33;20060;-76
2023/07/01 07:22:07;;;;;;;11.40;8.63;;;;;;;;;;4348261;32;20637;-75
2023/07/01 07:24:33;;;;;;;13.20;9.35;;;;;;;;;;4353761;32;20056;-78
2023/07/01 07:27:01;;;;;;;14.18;9.30;;;;;;;;;;4355044;32;20480;-76
2023/07/01 07:29:28;;;;;;;20.45;9.70;;;;;;;;;;4353202;32;20108;-76
2023/07/01 07:31:55;;;;;;;16.67;9.93;;;;;;;;;;4355051;32;20105;-76
2023/07/01 07:34:22;;;;;;;13.48;8.90;;;;;;;;;;4337151;33;20035;-77
2023/07/01 07:36:48;;;;;;;16.35;9.35;;;;;;;;;;4353071;33;20056;-77
2023/07/01 07:39:14;;;;;;;12.25;8.40;;;;;;;;;;4352211;32;20497;-77
2023/07/01 07:41:49;;;;;;;17.48;9.13;;;;;;;;;;4352884;33;20861;-77
2023/07/01 07:44:22;;;;;;;17.27;9.93;;;;;;;;;;4353028;32;20062;-76
2023/07/01 07:46:48;;;;;;;16.30;8.95;;;;;;;;;;4352689;32;20081;-76
2023/07/01 07:49:16;;;;;;;14.85;8.82;;;;;;;;;;4349528;33;20077;-78
2023/07/01 07:51:43;;;;;;;13.27;8.60;;;;;;;;;;4351430;32;20320;-76
2023/07/01 07:54:09;;;;;;;14.32;9.00;;;;;;;;;;4352437;33;20036;-76
2023/07/01 07:56:35;;;;;;;12.10;8.00;;;;;;;;;;4352600;32;20051;-76
2023/07/01 07:59:01;;;;;;;15.30;9.75;;;;;;;;;;4352731;33;20520;-76
2023/07/01 08:01:33;;;;;;;14.40;9.32;;;;;;;;;;4351064;32;20081;-76
2023/07/01 08:03:59;;;;;;;17.02;10.15;;;;;;;;;;4352632;33;20047;-77
2023/07/01 08:06:26;;;;;;;17.48;10.95;;;;;;;;;;4355157;32;20466;-76
2023/07/01 08:08:51;;;;;;;13.68;9.45;;;;;;;;;;4355332;33;20055;-76
2023/07/01 08:11:18;;;;;;;15.45;8.90;;;;;;;;;;4354478;33;20044;-78
2023/07/01 08:13:44;;;;;;;20.50;10.15;;;;;;;;;;4355073;32;20067;-76
2023/07/01 08:16:12;;;;;;;14.65;9.20;;;;;;;;;;4356044;33;20052;-75
2023/07/01 08:18:38;;;;;;;15.25;9.38;;;;;;;;;;4355592;33;20069;-76
2023/07/01 08:21:05;;;;;;;12.35;9.63;;;;;;;;;;4354964;32;20048;-76
2023/07/01 08:23:31;;;;;;;12.50;8.55;;;;;;;;;;4350946;32;20062;-76
2023/07/01 08:25:57;;;;;;;17.95;9.18;;;;;;;;;;4355132;33;20804;-75
2023/07/01 08:28:23;;;;;;;13.45;8.55;;;;;;;;;;4354911;32;20048;-76
2023/07/01 08:30:49;;;;;;;18.30;9.55;;;;;;;;;;4354904;33;20051;-76
2023/07/01 08:33:15;;;;;;;17.95;8.60;;;;;;;;;;4355220;33;20056;-76
2023/07/01 08:35:42;;;;;;;13.07;9.00;;;;;;;;;;4353016;32;20061;-76
2023/07/01 08:38:08;;;;;;;14.35;8.70;;;;;;;;;;4359686;32;20293;-76
2023/07/01 08:40:34;;;;;;;11.30;7.43;;;;;;;;;;4358696;32;20442;-76
2023/07/01 08:43:02;;;;;;;17.75;9.55;;;;;;;;;;4357539;32;20032;-77
2023/07/01 08:45:29;;;;;;;12.20;7.70;;;;;;;;;;4355579;32;20051;-79
2023/07/01 08:47:57;;;;;;;14.70;8.52;;;;;;;;;;4356020;32;20471;-77
2023/07/01 08:50:25;;;;;;;14.25;9.30;;;;;;;;;;4356224;32;20446;-78
2023/07/01 08:52:59;;;;;;;12.23;8.52;;;;;;;;;;4355938;32;20054;-77
2023/07/01 08:55:25;;;;;;;12.45;7.55;;;;;;;;;;4356635;32;20073;-78
2023/07/01 08:57:51;;;;;;;12.75;7.78;;;;;;;;;;4356427;32;20032;-77
2023/07/01 09:00:18;;;;;;;9.82;7.70;;;;;;;;;;4357353;32;20048;-77
2023/07/01 09:02:44;;;;;;;13.35;8.43;;;;;;;;;;4338673;33;20044;-77
2023/07/01 09:05:10;;;;;;;11.75;7.25;;;;;;;;;;4340454;33;20055;-77
2023/07/01 09:07:36;;;;;;;8.60;6.25;;;;;;;;;;4339766;33;20474;-79
2023/07/01 09:10:03;;;;;;;13.90;6.85;;;;;;;;;;4338839;33;20538;-77
2023/07/01 09:12:29;;;;;;;16.77;7.75;;;;;;;;;;4324050;33;20040;-77
2023/07/01 09:14:55;;;;;;;10.52;6.40;;;;;;;;;;4324927;33;20052;-77
2023/07/01 09:17:29;;;;;;;12.32;6.70;;;;;;;;;;4324925;33;20066;-77
2023/07/01 09:19:57;;;;;;;13.02;6.80;;;;;;;;;;4323937;33;20074;-76
2023/07/01 09:22:23;;;;;;;10.27;6.97;;;;;;;;;;4325014;33;20049;-77
2023/07/01 09:24:49;;;;;;;10.60;7.07;;;;;;;;;;4324939;33;20047;-77
2023/07/01 09:27:15;;;;;;;9.95;7.40;;;;;;;;;;4323855;33;20058;-77
2023/07/01 09:29:42;;;;;;;11.57;7.20;;;;;;;;;;4324774;33;20078;-79
2023/07/01 09:32:08;;;;;;;10.15;6.47;;;;;;;;;;4324072;33;20123;-77
2023/07/01 09:34:55;;;;;;;10.88;6.68;;;;;;;;;;4325048;33;20462;-77
2023/07/01 09:37:22;;;;;;;11.57;6.82;;;;;;;;;;4324307;33;20593;-78
2023/07/01 09:39:49;;;;;;;9.88;7.28;;;;;;;;;;4324094;33;20036;-77
2023/07/01 09:42:18;;;;;;;12.05;7.62;;;;;;;;;;4324934;33;20468;-78
2023/07/01 09:45:03;;;;;;;11.65;6.70;;;;;;;;;;4356616;32;20048;-76
2023/07/01 09:47:29;;;;;;;9.93;6.32;;;;;;;;;;4346330;32;20164;-77
2023/07/01 09:49:55;;;;;;;11.40;6.50;;;;;;;;;;4356611;32;20056;-76
2023/07/01 09:52:34;;;;;;;13.05;7.32;;;;;;;;;;4356594;32;20426;-76
2023/07/01 09:55:02;;;;;;;10.02;5.90;;;;;;;;;;4362683;32;20043;-77
2023/07/01 09:57:28;;;;;;;12.05;6.60;;;;;;;;;;4370265;32;20039;-76
2023/07/01 09:59:54;;;;;;;16.20;5.93;;;;;;;;;;4371088;32;20628;-75
2023/07/01 10:02:24;;;;;;;9.38;5.85;;;;;;;;;;4370098;32;20059;-76
2023/07/01 10:04:51;;;;;;;9.82;6.80;;;;;;;;;;4356098;32;20069;-77
2023/07/01 10:07:16;;;;;;;13.00;7.65;;;;;;;;;;4355427;32;20097;-77
2023/07/01 10:09:47;;;;;;;9.13;6.87;;;;;;;;;;4355597;32;20048;-76
2023/07/01 10:12:15;;;;;;;12.90;7.25;;;;;;;;;;4356236;32;20048;-76
2023/07/01 10:14:42;;;;;;;8.27;6.30;;;;;;;;;;4356244;32;20070;-76
2023/07/01 10:17:09;;;;;;;10.55;7.20;;;;;;;;;;4355746;32;20433;-77
2023/07/01 10:19:36;;;;;;;8.80;6.32;;;;;;;;;;4354889;32;20393;-75
2023/07/01 10:22:22;;;;;;;8.10;5.87;;;;;;;;;;4356263;32;20040;-76
2023/07/01 10:24:56;;;;;;;9.18;6.97;;;;;;;;;;4359631;32;20051;-77
2023/07/01 10:27:40;;;;;;;15.05;7.97;;;;;;;;;;4357600;32;20476;-76
2023/07/01 10:30:07;;;;;;;11.82;7.78;;;;;;;;;;4347697;32;20207;-76
2023/07/01 10:32:33;;;;;;;9.50;6.53;;;;;;;;;;4347334;32;20032;-78
2023/07/01 10:35:00;;;;;;;10.27;7.05;;;;;;;;;;4347280;32;20052;-76
2023/07/01 10:37:27;;;;;;;11.85;6.62;;;;;;;;;;4354798;32;20044;-76
2023/07/01 10:39:54;;;;;;;9.23;6.93;;;;;;;;;;4362463;32;20107;-76
2023/07/01 10:42:33;;;;;;;8.48;6.43;;;;;;;;;;4363436;32;20079;-77
2023/07/01 10:45:12;;;;;;;10.38;7.30;;;;;;;;;;4359377;32;20526;-75
2023/07/01 10:47:50;;;;;;;10.10;6.70;;;;;;;;;;4357887;32;20040;-76
2023/07/01 10:50:17;;;;;;;10.68;6.65;;;;;;;;;;4353273;32;20460;-77
2023/07/01 10:52:55;;;;;;;11.93;8.55;;;;;;;;;;4353126;32;20048;-77
2023/07/01 10:55:35;;;;;;;11.38;7.12;;;;;;;;;;4352634;32;20073;-77
2023/07/01 10:58:13;;;;;;;19.20;7.97;;;;;;;;;;4351146;32;20028;-77
2023/07/01 11:03:34;;;;;;;15.75;6.95;;;;;;;;;;4331090;33;20074;-78
2023/07/01 11:06:05;;;;;;;9.13;6.65;;;;;;;;;;4337131;33;20342;-76
2023/07/01 11:08:32;;;;;;;17.90;6.85;;;;;;;;;;4352495;32;20423;-76
2023/07/01 11:10:58;;;;;;;10.55;6.80;;;;;;;;;;4351458;32;20079;-75
2023/07/01 11:13:25;;;;;;;11.12;6.95;;;;;;;;;;4334282;33;20044;-76
2023/07/01 11:16:03;;;;;;;13.35;7.53;;;;;;;;;;4310508;33;20332;-76
2023/07/01 11:18:42;;;;;;;12.18;6.57;;;;;;;;;;4266770;33;20479;-76
2023/07/01 11:21:10;;;;;;;13.43;7.35;;;;;;;;;;4266045;33;20576;-78
2023/07/01 11:23:37;;;;;;;16.80;11.18;;;;;;;;;;4272348;33;20037;-76
2023/07/01 11:26:03;;;;;;;13.43;7.50;;;;;;;;;;4271541;33;20110;-77
2023/07/01 11:28:36;;;;;;;9.93;6.95;;;;;;;;;;4272922;33;20356;-75
2023/07/01 11:31:10;;;;;;;9.65;6.45;;;;;;;;;;4273418;33;20411;-77
2023/07/01 11:33:36;;;;;;;13.15;7.15;;;;;;;;;;4267676;33;20699;-76
2023/07/01 11:36:03;;;;;;;11.70;8.63;;;;;;;;;;4279920;33;20422;-76
2023/07/01 11:38:30;;;;;;;18.42;7.18;;;;;;;;;;4265029;33;20065;-77
2023/07/01 11:40:56;;;;;;;10.98;7.80;;;;;;;;;;4251086;33;20084;-77
2023/07/01 11:43:23;;;;;;;11.68;7.47;;;;;;;;;;4249248;33;20084;-77
2023/07/01 11:45:50;;;;;;;11.32;7.70;;;;;;;;;;4224625;33;20055;-77
2023/07/01 11:48:27;;;;;;;10.45;6.87;;;;;;;;;;4250796;33;20046;-78
2023/07/01 11:50:54;;;;;;;9.70;6.78;;;;;;;;;;4264576;33;20061;-76
2023/07/01 11:53:20;;;;;;;9.68;6.87;;;;;;;;;;4277797;33;20045;-78
2023/07/01 11:55:46;;;;;;;10.00;6.72;;;;;;;;;;4277838;33;20034;-78
2023/07/01 11:58:31;;;;;;;9.48;5.87;;;;;;;;;;4279763;33;20064;-77
2023/07/01 12:00:58;;;;;;;13.18;7.03;;;;;;;;;;4250734;33;20082;-79
2023/07/01 12:03:30;;;;;;;8.32;6.65;;;;;;;;;;4275847;33;20045;-78
2023/07/01 12:05:56;;;;;;;11.05;6.72;;;;;;;;;;4287868;33;20489;-77
2023/07/01 12:08:22;;;;;;;12.32;7.87;;;;;;;;;;4294109;33;20067;-77
2023/07/01 12:10:49;;;;;;;11.23;6.87;;;;;;;;;;4289975;33;20059;-78
2023/07/01 12:13:28;;;;;;;10.88;6.68;;;;;;;;;;4295889;33;20125;-77
2023/07/01 12:15:55;;;;;;;11.90;6.90;;;;;;;;;;4296015;33;20494;-77
2023/07/01 12:18:21;;;;;;;14.07;6.72;;;;;;;;;;4294107;33;20037;-77
2023/07/01 12:20:48;;;;;;;19.23;7.15;;;;;;;;;;4292682;33;20616;-79
2023/07/01 12:23:14;;;;;;;10.35;7.47;;;;;;;;;;4293623;33;20091;-77
2023/07/01 12:25:40;;;;;;;12.80;8.18;;;;;;;;;;4295692;33;20569;-80
2023/07/01 12:28:06;;;;;;;23.50;15.05;;;;;;;;;;4295732;33;20030;-76
2023/07/01 12:30:32;;;;;;;14.10;8.07;;;;;;;;;;4296270;33;20087;-77
2023/07/01 12:32:58;;;;;;;12.43;7.97;;;;;;;;;;4323864;33;20088;-77
2023/07/01 12:35:25;;;;;;;10.07;6.87;;;;;;;;;;4324023;33;20044;-76
2023/07/01 12:37:52;;;;;;;9.52;7.07;;;;;;;;;;4326060;33;20363;-76
2023/07/01 12:40:20;;;;;;;9.43;7.03;;;;;;;;;;4325706;33;20061;-77
2023/07/01 12:42:47;;;;;;;12.20;8.48;;;;;;;;;;4324655;33;20025;-76
2023/07/01 12:45:14;;;;;;;10.07;7.28;;;;;;;;;;4293557;33;20076;-78
2023/07/01 12:47:40;;;;;;;16.17;7.65;;;;;;;;;;4295192;33;20431;-77
2023/07/01 12:50:09;;;;;;;13.93;8.23;;;;;;;;;;4295276;33;20044;-77
2023/07/01 12:52:36;;;;;;;11.70;7.25;;;;;;;;;;4296558;33;20382;-77
2023/07/01 12:55:02;;;;;;;16.25;8.65;;;;;;;;;;4296330;33;20037;-76
2023/07/01 12:57:28;;;;;;;11.80;8.15;;;;;;;;;;4294367;33;20057;-77
2023/07/01 12:59:54;;;;;;;12.52;8.43;;;;;;;;;;4295597;33;20407;-77
2023/07/01 13:02:21;;;;;;;11.70;7.95;;;;;;;;;;4302391;33;20096;-76
2023/07/01 13:04:58;;;;;;;9.77;7.87;;;;;;;;;;4309274;33;20045;-77
2023/07/01 13:07:24;;;;;;;14.13;8.45;;;;;;;;;;4308447;33;20063;-77
2023/07/01 13:09:50;;;;;;;14.13;8.50;;;;;;;;;;4296960;33;20319;-77
2023/07/01 13:12:27;;;;;;;15.05;7.80;;;;;;;;;;4310822;33;20036;-77
2023/07/01 13:14:55;;;;;;;14.93;7.85;;;;;;;;;;4310344;33;20048;-75
2023/07/01 13:17:37;;;;;;;11.75;7.97;;;;;;;;;;4336414;33;20475;-77
2023/07/01 13:20:04;;;;;;;14.87;8.25;;;;;;;;;;4340333;33;20058;-76
2023/07/01 13:22:30;;;;;;;14.82;8.48;;;;;;;;;;4339051;33;20355;-77
2023/07/01 13:24:57;;;;;;;13.10;9.30;;;;;;;;;;4323061;33;20045;-78
2023/07/01 13:27:24;;;;;;;12.75;8.82;;;;;;;;;;4324421;33;20047;-77
2023/07/01 13:29:53;;;;;;;14.27;7.70;;;;;;;;;;4324462;33;20059;-77
2023/07/01 13:32:21;;;;;;;15.20;9.02;;;;;;;;;;4310634;33;20455;-77
2023/07/01 13:34:47;;;;;;;11.68;8.35;;;;;;;;;;4310238;33;20428;-76
2023/07/01 13:37:16;;;;;;;16.42;8.95;;;;;;;;;;4309297;33;20047;-75
2023/07/01 13:39:43;;;;;;;14.95;9.52;;;;;;;;;;4310232;33;20480;-75
2023/07/01 13:42:10;;;;;;;11.15;8.38;;;;;;;;;;4309712;33;20037;-76
2023/07/01 13:44:38;;;;;;;13.70;9.60;;;;;;;;;;4309500;33;20057;-76
2023/07/01 13:47:11;;;;;;;14.95;8.80;;;;;;;;;;4308370;33;20041;-76
2023/07/01 13:49:37;;;;;;;16.83;9.93;;;;;;;;;;4309797;33;20048;-77
2023/07/01 13:52:04;;;;;;;17.30;9.68;;;;;;;;;;4310177;33;20067;-77
2023/07/01 13:54:30;;;;;;;14.87;10.48;;;;;;;;;;4308607;33;20125;-76
2023/07/01 13:56:59;;;;;;;15.05;9.00;;;;;;;;;;4309112;33;20036;-79
2023/07/01 13:59:26;;;;;;;14.35;9.40;;;;;;;;;;4309144;33;20339;-77
2023/07/01 14:01:52;;;;;;;21.60;10.13;;;;;;;;;;4297957;33;20507;-77
2023/07/01 14:04:20;;;;;;;18.52;9.55;;;;;;;;;;4321762;33;20084;-77
2023/07/01 14:06:46;;;;;;;17.37;9.48;;;;;;;;;;4323775;33;20033;-76
2023/07/01 14:09:22;;;;;;;16.10;9.20;;;;;;;;;;4322524;33;20052;-78
2023/07/01 14:11:49;;;;;;;17.67;9.02;;;;;;;;;;4309657;33;20366;-77
2023/07/01 14:14:19;;;;;;;14.18;9.25;;;;;;;;;;4310151;33;20053;-76
2023/07/01 14:16:49;;;;;;;15.52;10.50;;;;;;;;;;4310179;33;20033;-77
2023/07/01 14:19:16;;;;;;;16.20;10.88;;;;;;;;;;4307316;33;20419;-79
2023/07/01 14:21:45;;;;;;;17.20;11.65;;;;;;;;;;4309414;33;20040;-76
2023/07/01 14:24:23;;;;;;;18.37;10.13;;;;;;;;;;4309977;33;20406;-75
2023/07/01 14:26:53;;;;;;;17.62;10.18;;;;;;;;;;4309387;33;20527;-74
2023/07/01 14:29:19;;;;;;;14.55;9.68;;;;;;;;;;4307898;33;20375;-77
2023/07/01 14:31:46;;;;;;;17.58;10.63;;;;;;;;;;4308723;33;20275;-75
2023/07/01 14:34:13;;;;;;;19.50;10.55;;;;;;;;;;4309105;33;20040;-76
2023/07/01 14:36:43;;;;;;;13.15;9.40;;;;;;;;;;4308844;33;20067;-76
2023/07/01 14:39:10;;;;;;;16.02;11.50;;;;;;;;;;4307271;33;20797;-76
2023/07/01 14:41:37;;;;;;;21.70;11.02;;;;;;;;;;4308681;33;20074;-76
2023/07/01 14:44:04;;;;;;;15.40;10.63;;;;;;;;;;4325634;33;20342;-75
2023/07/01 14:46:32;;;;;;;16.25;9.75;;;;;;;;;;4325127;33;20434;-75
2023/07/01 14:49:01;;;;;;;18.48;11.70;;;;;;;;;;4292886;33;20606;-77
2023/07/01 14:51:27;;;;;;;16.70;10.13;;;;;;;;;;4293598;33;20052;-75
2023/07/01 14:53:54;;;;;;;15.98;10.85;;;;;;;;;;4294987;33;20045;-75
2023/07/01 14:56:20;;;;;;;18.02;10.48;;;;;;;;;;4294748;33;20037;-75
2023/07/01 14:58:47;;;;;;;20.40;10.38;;;;;;;;;;4294093;33;20041;-76
2023/07/01 15:01:14;;;;;;;19.05;11.95;;;;;;;;;;4294350;33;20055;-78
2023/07/01 15:03:41;;;;;;;14.57;10.48;;;;;;;;;;4292223;33;20079;-76
2023/07/01 15:06:07;;;;;;;13.57;10.55;;;;;;;;;;4294650;33;20037;-77
2023/07/01 15:08:34;;;;;;;19.70;11.05;;;;;;;;;;4294590;33;20037;-76
2023/07/01 15:11:00;;;;;;;14.55;10.00;;;;;;;;;;4294277;33;20437;-76
2023/07/01 15:13:32;;;;;;;17.17;11.30;;;;;;;;;;4292753;33;20059;-76
2023/07/01 15:15:58;;;;;;;18.40;10.60;;;;;;;;;;4293664;33;20455;-75
2023/07/01 15:18:25;;;;;;;17.10;11.35;;;;;;;;;;4294322;33;20062;-75
2023/07/01 15:20:51;;;;;;;20.98;11.23;;;;;;;;;;4318069;33;20044;-75
2023/07/01 15:23:18;;;;;;;14.45;9.98;;;;;;;;;;4323338;33;20074;-75
2023/07/01 15:25:44;;;;;;;16.30;11.02;;;;;;;;;;4321326;33;20037;-76
2023/07/01 15:28:10;;;;;;;17.52;12.02;;;;;;;;;;4322644;33;20977;-75
2023/07/01 15:30:36;;;;;;;15.52;10.85;;;;;;;;;;4325833;33;20070;-76
2023/07/01 15:33:03;;;;;;;27.27;17.62;;;;;;;;;;4325928;33;20052;-76
2023/07/01 15:35:29;;;;;;;17.10;11.30;;;;;;;;;;4325817;33;20344;-75
2023/07/01 15:37:55;;;;;;;19.30;11.63;;;;;;;;;;4323728;33;20044;-76
2023/07/01 15:40:21;;;;;;;19.33;11.40;;;;;;;;;;4325989;33;20056;-76
2023/07/01 15:42:49;;;;;;;21.92;11.30;;;;;;;;;;4325795;33;20052;-76
2023/07/01 15:45:15;;;;;;;15.52;10.73;;;;;;;;;;4327045;33;20369;-76
2023/07/01 15:47:41;;;;;;;15.15;9.88;;;;;;;;;;4328315;33;20066;-79
2023/07/01 15:50:07;;;;;;;14.27;11.02;;;;;;;;;;4310444;33;20037;-76
2023/07/01 15:52:34;;;;;;;17.00;10.70;;;;;;;;;;4310853;33;20201;-76
2023/07/01 15:55:04;;;;;;;14.13;10.52;;;;;;;;;;4311828;33;20040;-76
2023/07/01 15:57:31;;;;;;;12.85;9.85;;;;;;;;;;4311450;33;20062;-76
2023/07/01 15:59:58;;;;;;;12.65;9.82;;;;;;;;;;4309945;33;20032;-78
2023/07/01 16:02:26;;;;;;;15.30;10.48;;;;;;;;;;4310678;33;20061;-77
2023/07/01 16:04:52;;;;;;;15.00;10.18;;;;;;;;;;4311104;33;20382;-76
2023/07/01 16:07:18;;;;;;;21.02;11.30;;;;;;;;;;4311505;33;20048;-76
2023/07/01 16:09:47;;;;;;;12.57;9.77;;;;;;;;;;4311724;33;20064;-74
2023/07/01 16:12:29;;;;;;;13.15;10.20;;;;;;;;;;4309958;33;20129;-74
2023/07/01 16:14:59;;;;;;;13.73;10.70;;;;;;;;;;4311362;33;20067;-76
2023/07/01 16:17:27;;;;;;;17.27;10.30;;;;;;;;;;4311102;33;20543;-76
2023/07/01 16:19:53;;;;;;;14.73;9.95;;;;;;;;;;4309445;33;20096;-77
2023/07/01 16:22:20;;;;;;;14.07;9.35;;;;;;;;;;4328007;33;20163;-76
2023/07/01 16:24:55;;;;;;;13.32;10.43;;;;;;;;;;4324174;33;20041;-75
2023/07/01 16:27:23;;;;;;;13.62;9.68;;;;;;;;;;4325729;33;20058;-76
2023/07/01 16:30:02;;;;;;;13.05;9.43;;;;;;;;;;4324287;33;20045;-75
2023/07/01 16:32:29;;;;;;;14.23;9.73;;;;;;;;;;4325581;33;20229;-76